sensor_id;sensor_type;location;lat;lon;timestamp;P1;durP1;ratioP1;P2;durP2;ratioP2
8042;SDS011;4064;48.132;11.366;2022-07-12T00:00:12;3.47;;;3.03;;
8042;SDS011;4064;48.132;11.366;2022-07-12T00:02:38;3.17;;;2.83;;
8042;SDS011;4064;48.132;11.366;2022-07-12T00:05:04;3.60;;;2.57;;
8042;SDS011;4064;48.132;11.366;2022-07-12T00:07:30;2.80;;;2.60;;
8042;SDS011;4064;48.132;11.366;2022-07-12T00:09:55;5.23;;;2.60;;
8042;SDS011;4064;48.132;11.366;2022-07-12T00:12:21;3.37;;;3.07;;
8042;SDS011;4064;48.132;11.366;2022-07-12T00:14:47;4.47;;;3.00;;
8042;SDS011;4064;48.132;11.366;2022-07-12T00:17:13;3.47;;;2.77;;
8042;SDS011;4064;48.132;11.366;2022-07-12T00:19:39;3.20;;;2.90;;
8042;SDS011;4064;48.132;11.366;2022-07-12T00:22:04;3.07;;;2.67;;
8042;SDS011;4064;48.132;11.366;2022-07-12T00:24:30;3.37;;;3.07;;
8042;SDS011;4064;48.132;11.366;2022-07-12T00:26:56;3.10;;;2.80;;
8042;SDS011;4064;48.132;11.366;2022-07-12T00:29:21;3.53;;;2.87;;
8042;SDS011;4064;48.132;11.366;2022-07-12T00:31:47;7.47;;;3.20;;
8042;SDS011;4064;48.132;11.366;2022-07-12T00:34:13;3.57;;;3.00;;
8042;SDS011;4064;48.132;11.366;2022-07-12T00:36:38;2.73;;;2.53;;
8042;SDS011;4064;48.132;11.366;2022-07-12T00:39:04;5.33;;;3.57;;
8042;SDS011;4064;48.132;11.366;2022-07-12T00:41:30;3.40;;;3.10;;
8042;SDS011;4064;48.132;11.366;2022-07-12T00:43:55;3.30;;;2.63;;
8042;SDS011;4064;48.132;11.366;2022-07-12T00:46:22;3.03;;;2.73;;
8042;SDS011;4064;48.132;11.366;2022-07-12T00:48:49;5.93;;;3.50;;
8042;SDS011;4064;48.132;11.366;2022-07-12T00:51:16;4.87;;;2.73;;
8042;SDS011;4064;48.132;11.366;2022-07-12T00:53:43;3.80;;;3.10;;
8042;SDS011;4064;48.132;11.366;2022-07-12T00:56:10;3.33;;;3.03;;
8042;SDS011;4064;48.132;11.366;2022-07-12T00:58:37;3.40;;;3.10;;
8042;SDS011;4064;48.132;11.366;2022-07-12T01:01:02;4.43;;;3.20;;
8042;SDS011;4064;48.132;11.366;2022-07-12T01:03:29;5.43;;;2.43;;
8042;SDS011;4064;48.132;11.366;2022-07-12T01:05:54;3.27;;;2.97;;
8042;SDS011;4064;48.132;11.366;2022-07-12T01:08:20;3.67;;;2.60;;
8042;SDS011;4064;48.132;11.366;2022-07-12T01:10:47;4.17;;;3.17;;
8042;SDS011;4064;48.132;11.366;2022-07-12T01:13:14;3.07;;;2.50;;
8042;SDS011;4064;48.132;11.366;2022-07-12T01:15:40;3.07;;;2.77;;
8042;SDS011;4064;48.132;11.366;2022-07-12T01:18:07;3.13;;;2.83;;
8042;SDS011;4064;48.132;11.366;2022-07-12T01:20:35;6.00;;;3.20;;
8042;SDS011;4064;48.132;11.366;2022-07-12T01:23:01;3.50;;;2.93;;
8042;SDS011;4064;48.132;11.366;2022-07-12T01:25:27;3.87;;;3.33;;
8042;SDS011;4064;48.132;11.366;2022-07-12T01:27:53;3.20;;;2.90;;
8042;SDS011;4064;48.132;11.366;2022-07-12T01:30:19;3.77;;;2.70;;
8042;SDS011;4064;48.132;11.366;2022-07-12T01:32:44;4.73;;;3.20;;
8042;SDS011;4064;48.132;11.366;2022-07-12T01:35:10;3.53;;;3.23;;
8042;SDS011;4064;48.132;11.366;2022-07-12T01:37:37;3.30;;;3.00;;
8042;SDS011;4064;48.132;11.366;2022-07-12T01:40:07;4.73;;;3.60;;
8042;SDS011;4064;48.132;11.366;2022-07-12T01:42:34;4.17;;;3.20;;
8042;SDS011;4064;48.132;11.366;2022-07-12T01:45:01;3.53;;;3.23;;
8042;SDS011;4064;48.132;11.366;2022-07-12T01:47:29;4.27;;;3.27;;
8042;SDS011;4064;48.132;11.366;2022-07-12T01:49:56;3.57;;;3.27;;
8042;SDS011;4064;48.132;11.366;2022-07-12T01:52:22;3.27;;;2.97;;
8042;SDS011;4064;48.132;11.366;2022-07-12T01:54:48;4.40;;;3.93;;
8042;SDS011;4064;48.132;11.366;2022-07-12T01:57:14;3.43;;;3.13;;
8042;SDS011;4064;48.132;11.366;2022-07-12T01:59:40;4.03;;;3.23;;
8042;SDS011;4064;48.132;11.366;2022-07-12T02:02:06;3.27;;;2.97;;
8042;SDS011;4064;48.132;11.366;2022-07-12T02:04:33;4.80;;;3.30;;
8042;SDS011;4064;48.132;11.366;2022-07-12T02:06:59;3.63;;;3.33;;
8042;SDS011;4064;48.132;11.366;2022-07-12T02:09:25;4.10;;;3.60;;
8042;SDS011;4064;48.132;11.366;2022-07-12T02:11:52;5.27;;;3.50;;
8042;SDS011;4064;48.132;11.366;2022-07-12T02:14:18;3.53;;;3.10;;
8042;SDS011;4064;48.132;11.366;2022-07-12T02:16:44;4.27;;;2.93;;
8042;SDS011;4064;48.132;11.366;2022-07-12T02:19:10;3.60;;;3.23;;
8042;SDS011;4064;48.132;11.366;2022-07-12T02:21:37;3.80;;;3.40;;
8042;SDS011;4064;48.132;11.366;2022-07-12T02:24:03;3.50;;;3.20;;
8042;SDS011;4064;48.132;11.366;2022-07-12T02:26:29;3.50;;;3.20;;
8042;SDS011;4064;48.132;11.366;2022-07-12T02:28:55;3.60;;;3.30;;
8042;SDS011;4064;48.132;11.366;2022-07-12T02:31:21;7.47;;;3.40;;
8042;SDS011;4064;48.132;11.366;2022-07-12T02:33:47;4.07;;;3.33;;
8042;SDS011;4064;48.132;11.366;2022-07-12T02:36:12;4.37;;;3.57;;
8042;SDS011;4064;48.132;11.366;2022-07-12T02:38:38;4.50;;;3.30;;
8042;SDS011;4064;48.132;11.366;2022-07-12T02:41:04;3.43;;;3.13;;
8042;SDS011;4064;48.132;11.366;2022-07-12T02:43:30;5.30;;;3.83;;
8042;SDS011;4064;48.132;11.366;2022-07-12T02:46:06;5.23;;;4.23;;
8042;SDS011;4064;48.132;11.366;2022-07-12T02:48:34;3.43;;;3.13;;
8042;SDS011;4064;48.132;11.366;2022-07-12T02:51:00;4.80;;;4.30;;
8042;SDS011;4064;48.132;11.366;2022-07-12T02:53:26;3.80;;;3.50;;
8042;SDS011;4064;48.132;11.366;2022-07-12T02:55:52;5.13;;;3.77;;
8042;SDS011;4064;48.132;11.366;2022-07-12T02:58:18;4.23;;;3.87;;
8042;SDS011;4064;48.132;11.366;2022-07-12T03:00:44;4.70;;;3.80;;
8042;SDS011;4064;48.132;11.366;2022-07-12T03:03:10;7.80;;;3.93;;
8042;SDS011;4064;48.132;11.366;2022-07-12T03:05:37;4.03;;;3.63;;
8042;SDS011;4064;48.132;11.366;2022-07-12T03:08:04;3.93;;;3.60;;
8042;SDS011;4064;48.132;11.366;2022-07-12T03:10:31;6.70;;;3.63;;
8042;SDS011;4064;48.132;11.366;2022-07-12T03:12:56;6.47;;;3.90;;
8042;SDS011;4064;48.132;11.366;2022-07-12T03:15:22;4.00;;;3.60;;
8042;SDS011;4064;48.132;11.366;2022-07-12T03:17:48;5.17;;;3.50;;
8042;SDS011;4064;48.132;11.366;2022-07-12T03:20:14;4.00;;;3.60;;
8042;SDS011;4064;48.132;11.366;2022-07-12T03:22:43;4.73;;;3.70;;
8042;SDS011;4064;48.132;11.366;2022-07-12T03:25:11;6.80;;;4.47;;
8042;SDS011;4064;48.132;11.366;2022-07-12T03:27:38;4.43;;;3.80;;
8042;SDS011;4064;48.132;11.366;2022-07-12T03:30:04;5.63;;;4.20;;
8042;SDS011;4064;48.132;11.366;2022-07-12T03:32:30;5.60;;;3.83;;
8042;SDS011;4064;48.132;11.366;2022-07-12T03:34:56;8.23;;;5.33;;
8042;SDS011;4064;48.132;11.366;2022-07-12T03:37:21;5.53;;;4.60;;
8042;SDS011;4064;48.132;11.366;2022-07-12T03:39:47;5.43;;;4.93;;
8042;SDS011;4064;48.132;11.366;2022-07-12T03:42:13;4.97;;;4.47;;
8042;SDS011;4064;48.132;11.366;2022-07-12T03:44:39;5.87;;;5.00;;
8042;SDS011;4064;48.132;11.366;2022-07-12T03:47:04;5.27;;;4.77;;
8042;SDS011;4064;48.132;11.366;2022-07-12T03:49:30;7.20;;;4.80;;
8042;SDS011;4064;48.132;11.366;2022-07-12T03:51:56;4.87;;;4.37;;
8042;SDS011;4064;48.132;11.366;2022-07-12T03:54:22;5.43;;;4.77;;
8042;SDS011;4064;48.132;11.366;2022-07-12T03:56:48;5.00;;;4.50;;
8042;SDS011;4064;48.132;11.366;2022-07-12T03:59:32;4.83;;;4.23;;
8042;SDS011;4064;48.132;11.366;2022-07-12T04:01:58;5.30;;;4.80;;
8042;SDS011;4064;48.132;11.366;2022-07-12T04:04:23;7.53;;;5.80;;
8042;SDS011;4064;48.132;11.366;2022-07-12T04:06:49;5.47;;;4.97;;
8042;SDS011;4064;48.132;11.366;2022-07-12T04:09:15;5.13;;;4.63;;
8042;SDS011;4064;48.132;11.366;2022-07-12T04:11:41;4.50;;;4.10;;
8042;SDS011;4064;48.132;11.366;2022-07-12T04:14:06;5.67;;;5.17;;
8042;SDS011;4064;48.132;11.366;2022-07-12T04:16:32;5.20;;;4.70;;
8042;SDS011;4064;48.132;11.366;2022-07-12T04:18:58;5.47;;;4.60;;
8042;SDS011;4064;48.132;11.366;2022-07-12T04:21:24;6.73;;;5.00;;
8042;SDS011;4064;48.132;11.366;2022-07-12T04:23:50;4.83;;;4.20;;
8042;SDS011;4064;48.132;11.366;2022-07-12T04:26:15;6.07;;;4.70;;
8042;SDS011;4064;48.132;11.366;2022-07-12T04:28:44;7.40;;;4.23;;
8042;SDS011;4064;48.132;11.366;2022-07-12T04:31:10;7.37;;;5.53;;
8042;SDS011;4064;48.132;11.366;2022-07-12T04:33:36;5.57;;;4.97;;
8042;SDS011;4064;48.132;11.366;2022-07-12T04:36:01;5.27;;;4.77;;
8042;SDS011;4064;48.132;11.366;2022-07-12T04:38:27;5.00;;;4.50;;
8042;SDS011;4064;48.132;11.366;2022-07-12T04:40:53;7.20;;;5.80;;
8042;SDS011;4064;48.132;11.366;2022-07-12T04:43:19;12.30;;;5.73;;
8042;SDS011;4064;48.132;11.366;2022-07-12T04:45:44;8.07;;;4.10;;
8042;SDS011;4064;48.132;11.366;2022-07-12T04:48:10;6.67;;;5.97;;
8042;SDS011;4064;48.132;11.366;2022-07-12T04:50:37;5.87;;;5.27;;
8042;SDS011;4064;48.132;11.366;2022-07-12T04:53:02;5.33;;;4.83;;
8042;SDS011;4064;48.132;11.366;2022-07-12T04:55:28;5.80;;;4.47;;
8042;SDS011;4064;48.132;11.366;2022-07-12T04:57:54;5.73;;;4.53;;
8042;SDS011;4064;48.132;11.366;2022-07-12T05:00:20;5.93;;;5.33;;
8042;SDS011;4064;48.132;11.366;2022-07-12T05:02:46;7.40;;;4.43;;
8042;SDS011;4064;48.132;11.366;2022-07-12T05:05:12;5.40;;;4.90;;
8042;SDS011;4064;48.132;11.366;2022-07-12T05:07:39;8.50;;;5.40;;
8042;SDS011;4064;48.132;11.366;2022-07-12T05:10:05;6.73;;;4.47;;
8042;SDS011;4064;48.132;11.366;2022-07-12T05:12:31;5.77;;;4.80;;
8042;SDS011;4064;48.132;11.366;2022-07-12T05:14:57;6.27;;;5.47;;
8042;SDS011;4064;48.132;11.366;2022-07-12T05:17:22;6.10;;;5.53;;
8042;SDS011;4064;48.132;11.366;2022-07-12T05:19:48;5.30;;;4.90;;
8042;SDS011;4064;48.132;11.366;2022-07-12T05:22:14;6.10;;;5.50;;
8042;SDS011;4064;48.132;11.366;2022-07-12T05:24:39;6.27;;;5.67;;
8042;SDS011;4064;48.132;11.366;2022-07-12T05:27:05;5.00;;;4.50;;
8042;SDS011;4064;48.132;11.366;2022-07-12T05:29:31;4.60;;;4.20;;
8042;SDS011;4064;48.132;11.366;2022-07-12T05:31:57;4.90;;;4.50;;
8042;SDS011;4064;48.132;11.366;2022-07-12T05:34:23;4.93;;;4.53;;
8042;SDS011;4064;48.132;11.366;2022-07-12T05:36:48;6.00;;;4.43;;
8042;SDS011;4064;48.132;11.366;2022-07-12T05:39:14;7.13;;;5.20;;
8042;SDS011;4064;48.132;11.366;2022-07-12T05:41:40;7.20;;;6.20;;
8042;SDS011;4064;48.132;11.366;2022-07-12T05:44:06;8.83;;;5.70;;
8042;SDS011;4064;48.132;11.366;2022-07-12T05:46:31;5.47;;;4.60;;
8042;SDS011;4064;48.132;11.366;2022-07-12T05:48:57;5.17;;;4.67;;
8042;SDS011;4064;48.132;11.366;2022-07-12T05:51:23;5.70;;;5.13;;
8042;SDS011;4064;48.132;11.366;2022-07-12T05:54:07;4.57;;;4.13;;
8042;SDS011;4064;48.132;11.366;2022-07-12T05:56:32;5.20;;;4.70;;
8042;SDS011;4064;48.132;11.366;2022-07-12T05:58:58;5.70;;;5.20;;
8042;SDS011;4064;48.132;11.366;2022-07-12T06:01:24;5.07;;;4.57;;
8042;SDS011;4064;48.132;11.366;2022-07-12T06:03:50;5.17;;;4.67;;
8042;SDS011;4064;48.132;11.366;2022-07-12T06:06:16;5.73;;;4.50;;
8042;SDS011;4064;48.132;11.366;2022-07-12T06:08:42;4.80;;;4.33;;
8042;SDS011;4064;48.132;11.366;2022-07-12T06:11:07;7.03;;;5.07;;
8042;SDS011;4064;48.132;11.366;2022-07-12T06:13:33;4.93;;;3.80;;
8042;SDS011;4064;48.132;11.366;2022-07-12T06:15:59;3.50;;;3.20;;
8042;SDS011;4064;48.132;11.366;2022-07-12T06:18:25;6.60;;;3.80;;
8042;SDS011;4064;48.132;11.366;2022-07-12T06:20:51;4.20;;;3.80;;
8042;SDS011;4064;48.132;11.366;2022-07-12T06:23:17;6.30;;;3.17;;
8042;SDS011;4064;48.132;11.366;2022-07-12T06:25:43;4.10;;;3.67;;
8042;SDS011;4064;48.132;11.366;2022-07-12T06:28:09;6.43;;;3.30;;
8042;SDS011;4064;48.132;11.366;2022-07-12T06:30:35;2.97;;;2.77;;
8042;SDS011;4064;48.132;11.366;2022-07-12T06:33:00;3.50;;;3.20;;
8042;SDS011;4064;48.132;11.366;2022-07-12T06:35:26;6.17;;;3.20;;
8042;SDS011;4064;48.132;11.366;2022-07-12T06:37:53;6.33;;;2.60;;
8042;SDS011;4064;48.132;11.366;2022-07-12T06:40:18;3.13;;;2.57;;
8042;SDS011;4064;48.132;11.366;2022-07-12T06:42:44;2.40;;;2.20;;
8042;SDS011;4064;48.132;11.366;2022-07-12T06:45:10;2.50;;;2.30;;
8042;SDS011;4064;48.132;11.366;2022-07-12T06:47:36;3.47;;;2.10;;
8042;SDS011;4064;48.132;11.366;2022-07-12T06:50:02;2.57;;;2.37;;
8042;SDS011;4064;48.132;11.366;2022-07-12T06:52:28;2.57;;;2.33;;
8042;SDS011;4064;48.132;11.366;2022-07-12T06:54:55;1.70;;;1.57;;
8042;SDS011;4064;48.132;11.366;2022-07-12T06:57:21;2.57;;;2.37;;
8042;SDS011;4064;48.132;11.366;2022-07-12T06:59:46;1.80;;;1.57;;
8042;SDS011;4064;48.132;11.366;2022-07-12T07:02:13;4.03;;;2.10;;
8042;SDS011;4064;48.132;11.366;2022-07-12T07:04:39;3.90;;;1.83;;
8042;SDS011;4064;48.132;11.366;2022-07-12T07:07:04;2.83;;;1.70;;
8042;SDS011;4064;48.132;11.366;2022-07-12T07:09:30;4.80;;;1.57;;
8042;SDS011;4064;48.132;11.366;2022-07-12T07:11:56;3.90;;;1.73;;
8042;SDS011;4064;48.132;11.366;2022-07-12T07:14:22;1.90;;;1.47;;
8042;SDS011;4064;48.132;11.366;2022-07-12T07:16:47;4.30;;;1.40;;
8042;SDS011;4064;48.132;11.366;2022-07-12T07:19:13;2.43;;;1.70;;
8042;SDS011;4064;48.132;11.366;2022-07-12T07:21:39;1.93;;;1.77;;
8042;SDS011;4064;48.132;11.366;2022-07-12T07:24:05;2.10;;;1.90;;
8042;SDS011;4064;48.132;11.366;2022-07-12T07:26:30;2.93;;;1.67;;
8042;SDS011;4064;48.132;11.366;2022-07-12T07:28:57;1.83;;;1.70;;
8042;SDS011;4064;48.132;11.366;2022-07-12T07:31:42;2.47;;;2.27;;
8042;SDS011;4064;48.132;11.366;2022-07-12T07:34:08;2.30;;;2.10;;
8042;SDS011;4064;48.132;11.366;2022-07-12T07:36:33;2.20;;;1.97;;
8042;SDS011;4064;48.132;11.366;2022-07-12T07:38:59;4.87;;;1.70;;
8042;SDS011;4064;48.132;11.366;2022-07-12T07:41:25;2.27;;;1.57;;
8042;SDS011;4064;48.132;11.366;2022-07-12T07:43:51;2.20;;;1.37;;
8042;SDS011;4064;48.132;11.366;2022-07-12T07:46:17;1.90;;;1.30;;
8042;SDS011;4064;48.132;11.366;2022-07-12T07:48:42;3.80;;;1.67;;
8042;SDS011;4064;48.132;11.366;2022-07-12T07:51:08;1.30;;;1.07;;
8042;SDS011;4064;48.132;11.366;2022-07-12T07:53:34;1.83;;;1.23;;
8042;SDS011;4064;48.132;11.366;2022-07-12T07:56:00;2.30;;;1.57;;
8042;SDS011;4064;48.132;11.366;2022-07-12T07:58:25;1.90;;;1.47;;
8042;SDS011;4064;48.132;11.366;2022-07-12T08:00:51;2.73;;;1.40;;
8042;SDS011;4064;48.132;11.366;2022-07-12T08:03:18;2.57;;;1.50;;
8042;SDS011;4064;48.132;11.366;2022-07-12T08:05:45;1.93;;;1.60;;
8042;SDS011;4064;48.132;11.366;2022-07-12T08:08:11;4.13;;;1.40;;
8042;SDS011;4064;48.132;11.366;2022-07-12T08:10:37;1.87;;;1.20;;
8042;SDS011;4064;48.132;11.366;2022-07-12T08:13:03;1.97;;;1.30;;
8042;SDS011;4064;48.132;11.366;2022-07-12T08:15:28;3.20;;;1.43;;
8042;SDS011;4064;48.132;11.366;2022-07-12T08:17:55;2.47;;;1.30;;
8042;SDS011;4064;48.132;11.366;2022-07-12T08:20:23;1.70;;;1.40;;
8042;SDS011;4064;48.132;11.366;2022-07-12T08:22:50;1.80;;;1.30;;
8042;SDS011;4064;48.132;11.366;2022-07-12T08:25:15;2.03;;;1.40;;
8042;SDS011;4064;48.132;11.366;2022-07-12T08:27:41;2.47;;;1.33;;
8042;SDS011;4064;48.132;11.366;2022-07-12T08:30:08;1.50;;;1.10;;
8042;SDS011;4064;48.132;11.366;2022-07-12T08:32:35;1.70;;;1.20;;
8042;SDS011;4064;48.132;11.366;2022-07-12T08:35:01;1.50;;;1.30;;
8042;SDS011;4064;48.132;11.366;2022-07-12T08:37:27;1.70;;;1.30;;
8042;SDS011;4064;48.132;11.366;2022-07-12T08:39:53;1.50;;;1.27;;
8042;SDS011;4064;48.132;11.366;2022-07-12T08:42:19;4.57;;;1.60;;
8042;SDS011;4064;48.132;11.366;2022-07-12T08:44:47;1.50;;;1.40;;
8042;SDS011;4064;48.132;11.366;2022-07-12T08:47:20;4.07;;;1.40;;
8042;SDS011;4064;48.132;11.366;2022-07-12T08:52:38;2.00;;;1.37;;
8042;SDS011;4064;48.132;11.366;2022-07-12T08:57:47;1.40;;;1.30;;
8042;SDS011;4064;48.132;11.366;2022-07-12T09:00:14;1.40;;;1.30;;
8042;SDS011;4064;48.132;11.366;2022-07-12T09:02:45;2.27;;;1.63;;
8042;SDS011;4064;48.132;11.366;2022-07-12T09:05:11;4.50;;;1.37;;
8042;SDS011;4064;48.132;11.366;2022-07-12T09:07:38;3.33;;;1.40;;
8042;SDS011;4064;48.132;11.366;2022-07-12T09:10:04;4.87;;;1.87;;
8042;SDS011;4064;48.132;11.366;2022-07-12T09:12:32;1.93;;;1.30;;
8042;SDS011;4064;48.132;11.366;2022-07-12T09:15:19;2.10;;;1.90;;
8042;SDS011;4064;48.132;11.366;2022-07-12T09:18:01;1.97;;;1.73;;
8042;SDS011;4064;48.132;11.366;2022-07-12T09:20:29;2.43;;;1.50;;
8042;SDS011;4064;48.132;11.366;2022-07-12T09:22:58;2.00;;;1.80;;
8042;SDS011;4064;48.132;11.366;2022-07-12T09:25:30;2.00;;;1.80;;
8042;SDS011;4064;48.132;11.366;2022-07-12T09:28:01;2.30;;;1.80;;
8042;SDS011;4064;48.132;11.366;2022-07-12T09:30:29;1.53;;;1.40;;
8042;SDS011;4064;48.132;11.366;2022-07-12T09:33:05;1.80;;;1.37;;
8042;SDS011;4064;48.132;11.366;2022-07-12T09:38:32;1.93;;;1.27;;
8042;SDS011;4064;48.132;11.366;2022-07-12T09:40:58;1.97;;;1.63;;
8042;SDS011;4064;48.132;11.366;2022-07-12T09:43:25;1.40;;;1.20;;
8042;SDS011;4064;48.132;11.366;2022-07-12T09:45:52;4.67;;;1.30;;
8042;SDS011;4064;48.132;11.366;2022-07-12T09:48:21;4.40;;;1.37;;
8042;SDS011;4064;48.132;11.366;2022-07-12T09:50:48;3.30;;;1.20;;
8042;SDS011;4064;48.132;11.366;2022-07-12T09:53:19;2.00;;;1.80;;
8042;SDS011;4064;48.132;11.366;2022-07-12T09:55:49;1.93;;;1.60;;
8042;SDS011;4064;48.132;11.366;2022-07-12T09:58:17;1.97;;;1.87;;
8042;SDS011;4064;48.132;11.366;2022-07-12T10:01:03;1.87;;;1.37;;
8042;SDS011;4064;48.132;11.366;2022-07-12T10:03:32;1.70;;;1.60;;
8042;SDS011;4064;48.132;11.366;2022-07-12T10:06:00;2.60;;;1.60;;
8042;SDS011;4064;48.132;11.366;2022-07-12T10:08:30;2.00;;;1.77;;
8042;SDS011;4064;48.132;11.366;2022-07-12T10:10:56;2.70;;;1.60;;
8042;SDS011;4064;48.132;11.366;2022-07-12T10:13:22;1.80;;;1.50;;
8042;SDS011;4064;48.132;11.366;2022-07-12T10:15:48;3.10;;;1.30;;
8042;SDS011;4064;48.132;11.366;2022-07-12T10:18:16;1.87;;;1.30;;
8042;SDS011;4064;48.132;11.366;2022-07-12T10:20:44;1.70;;;1.60;;
8042;SDS011;4064;48.132;11.366;2022-07-12T10:23:28;3.43;;;1.40;;
8042;SDS011;4064;48.132;11.366;2022-07-12T10:25:56;1.70;;;1.30;;
8042;SDS011;4064;48.132;11.366;2022-07-12T10:28:22;2.10;;;1.90;;
8042;SDS011;4064;48.132;11.366;2022-07-12T10:30:49;1.80;;;1.37;;
8042;SDS011;4064;48.132;11.366;2022-07-12T10:33:19;3.10;;;1.40;;
8042;SDS011;4064;48.132;11.366;2022-07-12T10:38:26;2.60;;;1.87;;
8042;SDS011;4064;48.132;11.366;2022-07-12T10:40:52;2.57;;;1.40;;
8042;SDS011;4064;48.132;11.366;2022-07-12T10:43:22;3.60;;;1.50;;
8042;SDS011;4064;48.132;11.366;2022-07-12T10:46:16;1.90;;;1.43;;
8042;SDS011;4064;48.132;11.366;2022-07-12T10:48:46;3.70;;;1.40;;
8042;SDS011;4064;48.132;11.366;2022-07-12T10:51:12;1.80;;;1.37;;
8042;SDS011;4064;48.132;11.366;2022-07-12T10:53:40;2.13;;;1.43;;
8042;SDS011;4064;48.132;11.366;2022-07-12T10:58:50;1.77;;;1.17;;
8042;SDS011;4064;48.132;11.366;2022-07-12T11:01:24;4.03;;;1.37;;
8042;SDS011;4064;48.132;11.366;2022-07-12T11:06:36;1.60;;;1.30;;
8042;SDS011;4064;48.132;11.366;2022-07-12T11:09:06;2.40;;;1.60;;
8042;SDS011;4064;48.132;11.366;2022-07-12T11:14:10;1.73;;;1.57;;
8042;SDS011;4064;48.132;11.366;2022-07-12T11:16:44;2.47;;;1.50;;
8042;SDS011;4064;48.132;11.366;2022-07-12T11:19:10;1.63;;;1.40;;
8042;SDS011;4064;48.132;11.366;2022-07-12T11:21:36;1.53;;;1.20;;
8042;SDS011;4064;48.132;11.366;2022-07-12T11:24:02;1.50;;;1.27;;
8042;SDS011;4064;48.132;11.366;2022-07-12T11:26:40;1.70;;;1.30;;
8042;SDS011;4064;48.132;11.366;2022-07-12T11:29:05;1.83;;;1.10;;
8042;SDS011;4064;48.132;11.366;2022-07-12T11:31:31;2.97;;;1.40;;
8042;SDS011;4064;48.132;11.366;2022-07-12T11:33:58;2.73;;;1.10;;
8042;SDS011;4064;48.132;11.366;2022-07-12T11:36:24;2.03;;;1.20;;
8042;SDS011;4064;48.132;11.366;2022-07-12T11:38:52;1.30;;;1.00;;
8042;SDS011;4064;48.132;11.366;2022-07-12T11:41:18;1.67;;;1.00;;
8042;SDS011;4064;48.132;11.366;2022-07-12T11:43:45;1.77;;;0.87;;
8042;SDS011;4064;48.132;11.366;2022-07-12T11:46:11;3.13;;;1.37;;
8042;SDS011;4064;48.132;11.366;2022-07-12T11:48:37;1.30;;;0.87;;
8042;SDS011;4064;48.132;11.366;2022-07-12T11:51:10;1.40;;;1.00;;
8042;SDS011;4064;48.132;11.366;2022-07-12T11:53:37;1.40;;;0.90;;
8042;SDS011;4064;48.132;11.366;2022-07-12T11:56:05;1.30;;;1.07;;
8042;SDS011;4064;48.132;11.366;2022-07-12T11:58:32;4.50;;;0.80;;
8042;SDS011;4064;48.132;11.366;2022-07-12T12:01:03;3.10;;;1.20;;
8042;SDS011;4064;48.132;11.366;2022-07-12T12:03:29;1.20;;;0.80;;
8042;SDS011;4064;48.132;11.366;2022-07-12T12:05:57;1.53;;;1.10;;
8042;SDS011;4064;48.132;11.366;2022-07-12T12:08:23;1.10;;;0.80;;
8042;SDS011;4064;48.132;11.366;2022-07-12T12:10:59;2.00;;;0.93;;
8042;SDS011;4064;48.132;11.366;2022-07-12T12:13:26;1.23;;;0.93;;
8042;SDS011;4064;48.132;11.366;2022-07-12T12:15:54;1.50;;;1.10;;
8042;SDS011;4064;48.132;11.366;2022-07-12T12:18:36;1.27;;;0.93;;
8042;SDS011;4064;48.132;11.366;2022-07-12T12:21:07;1.30;;;1.20;;
8042;SDS011;4064;48.132;11.366;2022-07-12T12:23:35;1.83;;;1.10;;
8042;SDS011;4064;48.132;11.366;2022-07-12T12:26:08;1.70;;;0.80;;
8042;SDS011;4064;48.132;11.366;2022-07-12T12:28:43;1.40;;;0.70;;
8042;SDS011;4064;48.132;11.366;2022-07-12T12:31:14;1.50;;;0.83;;
8042;SDS011;4064;48.132;11.366;2022-07-12T12:33:45;1.10;;;0.80;;
8042;SDS011;4064;48.132;11.366;2022-07-12T12:36:29;1.30;;;0.80;;
8042;SDS011;4064;48.132;11.366;2022-07-12T12:39:01;1.50;;;1.00;;
8042;SDS011;4064;48.132;11.366;2022-07-12T12:41:29;2.40;;;1.90;;
8042;SDS011;4064;48.132;11.366;2022-07-12T12:44:06;1.30;;;0.80;;
8042;SDS011;4064;48.132;11.366;2022-07-12T12:49:48;1.70;;;1.00;;
8042;SDS011;4064;48.132;11.366;2022-07-12T12:52:15;1.40;;;1.17;;
8042;SDS011;4064;48.132;11.366;2022-07-12T12:54:42;4.67;;;1.00;;
8042;SDS011;4064;48.132;11.366;2022-07-12T12:57:09;1.30;;;0.80;;
8042;SDS011;4064;48.132;11.366;2022-07-12T12:59:36;1.53;;;0.90;;
8042;SDS011;4064;48.132;11.366;2022-07-12T13:02:03;1.30;;;0.83;;
8042;SDS011;4064;48.132;11.366;2022-07-12T13:04:30;3.07;;;0.90;;
8042;SDS011;4064;48.132;11.366;2022-07-12T13:06:58;1.10;;;0.80;;
8042;SDS011;4064;48.132;11.366;2022-07-12T13:09:24;1.50;;;1.07;;
8042;SDS011;4064;48.132;11.366;2022-07-12T13:11:50;1.10;;;0.90;;
8042;SDS011;4064;48.132;11.366;2022-07-12T13:14:16;1.67;;;0.80;;
8042;SDS011;4064;48.132;11.366;2022-07-12T13:16:42;1.67;;;0.80;;
8042;SDS011;4064;48.132;11.366;2022-07-12T13:19:08;1.40;;;1.00;;
8042;SDS011;4064;48.132;11.366;2022-07-12T13:21:33;1.90;;;1.03;;
8042;SDS011;4064;48.132;11.366;2022-07-12T13:23:59;1.10;;;0.70;;
8042;SDS011;4064;48.132;11.366;2022-07-12T13:26:25;1.33;;;0.90;;
8042;SDS011;4064;48.132;11.366;2022-07-12T13:28:52;1.00;;;0.60;;
8042;SDS011;4064;48.132;11.366;2022-07-12T13:31:19;1.20;;;0.70;;
8042;SDS011;4064;48.132;11.366;2022-07-12T13:33:45;1.37;;;0.93;;
8042;SDS011;4064;48.132;11.366;2022-07-12T13:36:11;1.70;;;0.73;;
8042;SDS011;4064;48.132;11.366;2022-07-12T13:38:38;1.60;;;0.90;;
8042;SDS011;4064;48.132;11.366;2022-07-12T13:41:04;1.10;;;0.73;;
8042;SDS011;4064;48.132;11.366;2022-07-12T13:43:29;1.40;;;0.80;;
8042;SDS011;4064;48.132;11.366;2022-07-12T13:45:55;1.03;;;0.70;;
8042;SDS011;4064;48.132;11.366;2022-07-12T13:48:26;2.03;;;0.80;;
8042;SDS011;4064;48.132;11.366;2022-07-12T13:50:51;1.37;;;0.87;;
8042;SDS011;4064;48.132;11.366;2022-07-12T13:53:17;1.50;;;0.70;;
8042;SDS011;4064;48.132;11.366;2022-07-12T13:55:43;3.30;;;2.97;;
8042;SDS011;4064;48.132;11.366;2022-07-12T13:58:10;5.13;;;4.60;;
8042;SDS011;4064;48.132;11.366;2022-07-12T14:00:37;4.27;;;2.77;;
8042;SDS011;4064;48.132;11.366;2022-07-12T14:03:06;1.67;;;0.90;;
8042;SDS011;4064;48.132;11.366;2022-07-12T14:05:32;1.60;;;0.70;;
8042;SDS011;4064;48.132;11.366;2022-07-12T14:07:58;2.17;;;0.90;;
8042;SDS011;4064;48.132;11.366;2022-07-12T14:10:24;1.40;;;0.90;;
8042;SDS011;4064;48.132;11.366;2022-07-12T14:12:51;1.73;;;0.80;;
8042;SDS011;4064;48.132;11.366;2022-07-12T14:15:18;1.93;;;0.80;;
8042;SDS011;4064;48.132;11.366;2022-07-12T14:17:45;3.50;;;0.80;;
8042;SDS011;4064;48.132;11.366;2022-07-12T14:20:14;1.07;;;0.67;;
8042;SDS011;4064;48.132;11.366;2022-07-12T14:22:41;1.10;;;0.80;;
8042;SDS011;4064;48.132;11.366;2022-07-12T14:25:08;1.10;;;0.70;;
8042;SDS011;4064;48.132;11.366;2022-07-12T14:27:34;1.53;;;0.70;;
8042;SDS011;4064;48.132;11.366;2022-07-12T14:30:01;1.50;;;0.80;;
8042;SDS011;4064;48.132;11.366;2022-07-12T14:32:28;1.20;;;0.60;;
8042;SDS011;4064;48.132;11.366;2022-07-12T14:34:54;1.50;;;1.00;;
8042;SDS011;4064;48.132;11.366;2022-07-12T14:37:20;1.40;;;1.00;;
8042;SDS011;4064;48.132;11.366;2022-07-12T14:39:46;2.37;;;0.90;;
8042;SDS011;4064;48.132;11.366;2022-07-12T14:42:13;1.60;;;1.20;;
8042;SDS011;4064;48.132;11.366;2022-07-12T14:44:39;2.03;;;1.00;;
8042;SDS011;4064;48.132;11.366;2022-07-12T14:47:05;1.33;;;0.90;;
8042;SDS011;4064;48.132;11.366;2022-07-12T14:49:31;1.70;;;1.00;;
8042;SDS011;4064;48.132;11.366;2022-07-12T14:51:57;1.37;;;1.03;;
8042;SDS011;4064;48.132;11.366;2022-07-12T14:54:23;1.33;;;1.10;;
8042;SDS011;4064;48.132;11.366;2022-07-12T14:56:49;2.10;;;0.90;;
8042;SDS011;4064;48.132;11.366;2022-07-12T14:59:15;1.93;;;0.80;;
8042;SDS011;4064;48.132;11.366;2022-07-12T15:01:40;1.10;;;0.80;;
8042;SDS011;4064;48.132;11.366;2022-07-12T15:04:06;2.07;;;0.80;;
8042;SDS011;4064;48.132;11.366;2022-07-12T15:06:32;1.50;;;0.90;;
8042;SDS011;4064;48.132;11.366;2022-07-12T15:08:58;2.20;;;0.83;;
8042;SDS011;4064;48.132;11.366;2022-07-12T15:11:24;1.60;;;0.80;;
8042;SDS011;4064;48.132;11.366;2022-07-12T15:13:50;1.10;;;0.73;;
8042;SDS011;4064;48.132;11.366;2022-07-12T15:16:16;2.10;;;0.93;;
8042;SDS011;4064;48.132;11.366;2022-07-12T15:18:41;1.50;;;0.80;;
8042;SDS011;4064;48.132;11.366;2022-07-12T15:21:07;1.10;;;0.73;;